KQA400 HKJK-HRYR
Flight info
| Callsign | KQA400 |
|---|---|
| Flight time | 1h 1m |
| Altitude | 34000 |
| Route | IBRAT3E APLOG UL442 BOSAD BOSAD2A |
| Aircraft | B738/M-SDGIJ1LRWY/SB1 |
Departure
| Time | 2026-04-26 13:00 |
|---|---|
| Airport | Jomo Kenyatta International Airport (HKJK) |
Arrival
| Time | 2026-04-26 14:01 |
|---|---|
| Airport | Kigali International Airport (HRYR) |
| Time | Latitude | Longitude | Altitude | Speed | Heading |
|---|---|---|---|---|---|
| 2026-04-26 12:28 | -1.32951 | 36.92344 | 5337 ft | 0 kts | 122° |
| 2026-04-26 12:50 | -1.32944 | 36.92332 | 5337 ft | 2 kts | 121° |
| 2026-04-26 12:50 | -1.32936 | 36.92319 | 5337 ft | 2 kts | 122° |
| 2026-04-26 12:50 | -1.32928 | 36.92307 | 5337 ft | 2 kts | 122° |
| 2026-04-26 12:51 | -1.32923 | 36.92298 | 5337 ft | 2 kts | 122° |
| 2026-04-26 12:51 | -1.32917 | 36.92285 | 5337 ft | 2 kts | 97° |
| 2026-04-26 12:51 | -1.32917 | 36.92270 | 5337 ft | 2 kts | 79° |
| 2026-04-26 12:51 | -1.32923 | 36.92256 | 5337 ft | 2 kts | 58° |
| 2026-04-26 12:52 | -1.32932 | 36.92244 | 5337 ft | 2 kts | 39° |
| 2026-04-26 12:52 | -1.32942 | 36.92238 | 5337 ft | 0 kts | 24° |
| 2026-04-26 12:52 | -1.32948 | 36.92236 | 5337 ft | 0 kts | 21° |
| 2026-04-26 12:54 | -1.32908 | 36.92254 | 5337 ft | 9 kts | 27° |
| 2026-04-26 12:54 | -1.32845 | 36.92244 | 5337 ft | 12 kts | 326° |
| 2026-04-26 12:55 | -1.32789 | 36.92166 | 5337 ft | 15 kts | 262° |
| 2026-04-26 12:55 | -1.32843 | 36.92079 | 5337 ft | 13 kts | 234° |
| 2026-04-26 12:55 | -1.32897 | 36.92005 | 5337 ft | 12 kts | 233° |
| 2026-04-26 12:55 | -1.32936 | 36.91954 | 5337 ft | 11 kts | 233° |
| 2026-04-26 12:56 | -1.32973 | 36.91901 | 5337 ft | 12 kts | 235° |
| 2026-04-26 12:56 | -1.32991 | 36.91821 | 5337 ft | 11 kts | 304° |
| 2026-04-26 12:56 | -1.32931 | 36.91774 | 5337 ft | 10 kts | 324° |
| 2026-04-26 12:56 | -1.32876 | 36.91735 | 5337 ft | 8 kts | 324° |
| 2026-04-26 12:57 | -1.32838 | 36.91708 | 5337 ft | 0 kts | 324° |
| 2026-04-26 12:58 | -1.32829 | 36.91701 | 5337 ft | 6 kts | 324° |
| 2026-04-26 12:59 | -1.32783 | 36.91668 | 5337 ft | 7 kts | 333° |
| 2026-04-26 12:59 | -1.32729 | 36.91678 | 5337 ft | 11 kts | 39° |
| 2026-04-26 12:59 | -1.32540 | 36.91935 | 5337 ft | 83 kts | 53° |
| 2026-04-26 12:59 | -1.32059 | 36.92598 | 5337 ft | 149 kts | 54° |
| 2026-04-26 13:00 | -1.31339 | 36.93575 | 5468 ft | 191 kts | 54° |
| 2026-04-26 13:00 | -1.30556 | 36.94617 | 6341 ft | 186 kts | 54° |
| 2026-04-26 13:00 | -1.29988 | 36.95809 | 6851 ft | 202 kts | 84° |
| 2026-04-26 13:00 | -1.30134 | 36.97183 | 7465 ft | 207 kts | 110° |
| 2026-04-26 13:01 | -1.30852 | 36.98414 | 8092 ft | 213 kts | 129° |
| 2026-04-26 13:01 | -1.31977 | 36.99474 | 8548 ft | 231 kts | 144° |
| 2026-04-26 13:01 | -1.33528 | 37.00071 | 9016 ft | 250 kts | 174° |
| 2026-04-26 13:01 | -1.35267 | 36.99769 | 9548 ft | 266 kts | 204° |
| 2026-04-26 13:02 | -1.36765 | 36.98640 | 10001 ft | 278 kts | 230° |
| 2026-04-26 13:02 | -1.37696 | 36.96877 | 10208 ft | 298 kts | 256° |
| 2026-04-26 13:02 | -1.37945 | 36.94789 | 10216 ft | 306 kts | 269° |
| 2026-04-26 13:02 | -1.37928 | 36.92661 | 10210 ft | 304 kts | 271° |
| 2026-04-26 13:03 | -1.37898 | 36.90551 | 10212 ft | 305 kts | 270° |
| 2026-04-26 13:03 | -1.37907 | 36.88408 | 10266 ft | 321 kts | 269° |
| 2026-04-26 13:03 | -1.37965 | 36.86103 | 10715 ft | 339 kts | 268° |
| 2026-04-26 13:03 | -1.38056 | 36.83708 | 11255 ft | 353 kts | 268° |
| 2026-04-26 13:04 | -1.38194 | 36.81227 | 11851 ft | 365 kts | 267° |
| 2026-04-26 13:04 | -1.38365 | 36.78674 | 12615 ft | 370 kts | 267° |
| 2026-04-26 13:04 | -1.38544 | 36.76125 | 13437 ft | 373 kts | 267° |
| 2026-04-26 13:04 | -1.38722 | 36.73567 | 14224 ft | 376 kts | 267° |
| 2026-04-26 13:05 | -1.38899 | 36.70964 | 14887 ft | 382 kts | 267° |
| 2026-04-26 13:05 | -1.39075 | 36.68305 | 15564 ft | 387 kts | 267° |
| 2026-04-26 13:05 | -1.39249 | 36.65646 | 16254 ft | 391 kts | 268° |
| 2026-04-26 13:05 | -1.39425 | 36.62936 | 16936 ft | 395 kts | 267° |
| 2026-04-26 13:06 | -1.39603 | 36.60175 | 17565 ft | 401 kts | 268° |
| 2026-04-26 13:06 | -1.39781 | 36.57403 | 18225 ft | 405 kts | 268° |
| 2026-04-26 13:06 | -1.39962 | 36.54559 | 18893 ft | 409 kts | 268° |
| 2026-04-26 13:06 | -1.40142 | 36.51734 | 19569 ft | 412 kts | 268° |
| 2026-04-26 13:07 | -1.40324 | 36.48850 | 20179 ft | 417 kts | 268° |
| 2026-04-26 13:07 | -1.40506 | 36.45967 | 20777 ft | 421 kts | 268° |
| 2026-04-26 13:07 | -1.40691 | 36.43039 | 21414 ft | 424 kts | 268° |
| 2026-04-26 13:07 | -1.40878 | 36.40075 | 21983 ft | 429 kts | 268° |
| 2026-04-26 13:08 | -1.41065 | 36.37112 | 22561 ft | 432 kts | 268° |
| 2026-04-26 13:08 | -1.41257 | 36.34084 | 23151 ft | 436 kts | 268° |
| 2026-04-26 13:08 | -1.41448 | 36.31049 | 23666 ft | 441 kts | 268° |
| 2026-04-26 13:08 | -1.41638 | 36.28026 | 24232 ft | 443 kts | 268° |
| 2026-04-26 13:09 | -1.41824 | 36.25078 | 24738 ft | 447 kts | 268° |
| 2026-04-26 13:09 | -1.42020 | 36.21976 | 25229 ft | 451 kts | 268° |
| 2026-04-26 13:09 | -1.42215 | 36.18879 | 25750 ft | 454 kts | 268° |
| 2026-04-26 13:09 | -1.42415 | 36.15703 | 26247 ft | 458 kts | 268° |
| 2026-04-26 13:10 | -1.42614 | 36.12537 | 26748 ft | 461 kts | 268° |
| 2026-04-26 13:10 | -1.42818 | 36.09305 | 27238 ft | 464 kts | 268° |
| 2026-04-26 13:10 | -1.43021 | 36.06079 | 27714 ft | 467 kts | 268° |
| 2026-04-26 13:10 | -1.43224 | 36.02861 | 28189 ft | 470 kts | 267° |
| 2026-04-26 13:11 | -1.43433 | 35.99558 | 28631 ft | 473 kts | 267° |
| 2026-04-26 13:11 | -1.43640 | 35.96285 | 29136 ft | 475 kts | 267° |
| 2026-04-26 13:11 | -1.43847 | 35.92996 | 29609 ft | 478 kts | 268° |
| 2026-04-26 13:11 | -1.44058 | 35.89675 | 30269 ft | 476 kts | 267° |
| 2026-04-26 13:12 | -1.44265 | 35.86406 | 31043 ft | 471 kts | 268° |
| 2026-04-26 13:12 | -1.44471 | 35.83158 | 31661 ft | 469 kts | 268° |
| 2026-04-26 13:12 | -1.44673 | 35.79958 | 32239 ft | 468 kts | 268° |
| 2026-04-26 13:12 | -1.44876 | 35.76721 | 32831 ft | 466 kts | 268° |
| 2026-04-26 13:13 | -1.45080 | 35.73488 | 33457 ft | 464 kts | 268° |
| 2026-04-26 13:13 | -1.45280 | 35.70301 | 33995 ft | 463 kts | 268° |
| 2026-04-26 13:13 | -1.45481 | 35.67092 | 34271 ft | 467 kts | 268° |
| 2026-04-26 13:13 | -1.45682 | 35.63868 | 34260 ft | 468 kts | 268° |
| 2026-04-26 13:14 | -1.46086 | 35.57455 | 34256 ft | 463 kts | 268° |
| 2026-04-26 13:14 | -1.46490 | 35.51031 | 34256 ft | 465 kts | 268° |
| 2026-04-26 13:15 | -1.46893 | 35.44618 | 34252 ft | 464 kts | 268° |
| 2026-04-26 13:15 | -1.47230 | 35.39237 | 34245 ft | 464 kts | 268° |
| 2026-04-26 13:16 | -1.47695 | 35.31819 | 34235 ft | 463 kts | 268° |
| 2026-04-26 13:16 | -1.48096 | 35.25425 | 34233 ft | 463 kts | 268° |
| 2026-04-26 13:17 | -1.48697 | 35.15817 | 34222 ft | 463 kts | 268° |
| 2026-04-26 13:18 | -1.49296 | 35.06251 | 34210 ft | 463 kts | 268° |
| 2026-04-26 13:19 | -1.49898 | 34.96643 | 34202 ft | 462 kts | 268° |
| 2026-04-26 13:19 | -1.50311 | 34.90257 | 34193 ft | 463 kts | 267° |
| 2026-04-26 13:20 | -1.50898 | 34.83885 | 34308 ft | 469 kts | 265° |
| 2026-04-26 13:20 | -1.51238 | 34.80636 | 34646 ft | 472 kts | 265° |
| 2026-04-26 13:20 | -1.51583 | 34.77388 | 35228 ft | 469 kts | 265° |
| 2026-04-26 13:20 | -1.51895 | 34.74448 | 35824 ft | 466 kts | 265° |
| 2026-04-26 13:21 | -1.52192 | 34.71623 | 36164 ft | 467 kts | 265° |
| 2026-04-26 13:21 | -1.52856 | 34.65180 | 36169 ft | 468 kts | 266° |
| 2026-04-26 13:22 | -1.53503 | 34.58784 | 36157 ft | 466 kts | 266° |
| 2026-04-26 13:22 | -1.54147 | 34.52351 | 36148 ft | 467 kts | 266° |
| 2026-04-26 13:23 | -1.54786 | 34.45963 | 36139 ft | 466 kts | 266° |
| 2026-04-26 13:23 | -1.55425 | 34.39573 | 36139 ft | 466 kts | 266° |
| 2026-04-26 13:24 | -1.56044 | 34.33381 | 36136 ft | 467 kts | 266° |
| 2026-04-26 13:24 | -1.56671 | 34.27100 | 36132 ft | 466 kts | 266° |
| 2026-04-26 13:25 | -1.57311 | 34.20672 | 36129 ft | 468 kts | 266° |
| 2026-04-26 13:25 | -1.57948 | 34.14215 | 36130 ft | 469 kts | 266° |
| 2026-04-26 13:26 | -1.58589 | 34.07700 | 36129 ft | 473 kts | 266° |
| 2026-04-26 13:26 | -1.59230 | 34.01203 | 36132 ft | 472 kts | 266° |
| 2026-04-26 13:27 | -1.59868 | 33.94685 | 36128 ft | 472 kts | 266° |
| 2026-04-26 13:27 | -1.60502 | 33.88202 | 36122 ft | 472 kts | 266° |
| 2026-04-26 13:28 | -1.61137 | 33.81697 | 36118 ft | 472 kts | 266° |
| 2026-04-26 13:28 | -1.61772 | 33.75209 | 36111 ft | 472 kts | 266° |
| 2026-04-26 13:29 | -1.62407 | 33.68718 | 36107 ft | 472 kts | 266° |
| 2026-04-26 13:29 | -1.63045 | 33.62190 | 36106 ft | 471 kts | 266° |
| 2026-04-26 13:30 | -1.63682 | 33.55667 | 36103 ft | 471 kts | 266° |
| 2026-04-26 13:30 | -1.64314 | 33.49181 | 36097 ft | 471 kts | 266° |
| 2026-04-26 13:31 | -1.64945 | 33.42666 | 36097 ft | 471 kts | 266° |
| 2026-04-26 13:31 | -1.65570 | 33.36192 | 36097 ft | 471 kts | 266° |
| 2026-04-26 13:32 | -1.66181 | 33.29871 | 36096 ft | 470 kts | 266° |
| 2026-04-26 13:32 | -1.66813 | 33.23333 | 36096 ft | 470 kts | 266° |
| 2026-04-26 13:33 | -1.67440 | 33.16833 | 36095 ft | 470 kts | 266° |
| 2026-04-26 13:33 | -1.68069 | 33.10335 | 36094 ft | 469 kts | 266° |
| 2026-04-26 13:34 | -1.68695 | 33.03860 | 36097 ft | 470 kts | 266° |
| 2026-04-26 13:34 | -1.69322 | 32.97369 | 36095 ft | 469 kts | 266° |
| 2026-04-26 13:35 | -1.69948 | 32.90878 | 36093 ft | 470 kts | 266° |
| 2026-04-26 13:35 | -1.70574 | 32.84382 | 36092 ft | 469 kts | 266° |
| 2026-04-26 13:36 | -1.71198 | 32.77911 | 36093 ft | 469 kts | 266° |
| 2026-04-26 13:36 | -1.71825 | 32.71408 | 36090 ft | 470 kts | 266° |
| 2026-04-26 13:37 | -1.72449 | 32.64931 | 36091 ft | 470 kts | 266° |
| 2026-04-26 13:37 | -1.73089 | 32.58414 | 36088 ft | 470 kts | 265° |
| 2026-04-26 13:38 | -1.73741 | 32.51948 | 36088 ft | 469 kts | 265° |
| 2026-04-26 13:38 | -1.74398 | 32.45439 | 36088 ft | 469 kts | 265° |
| 2026-04-26 13:39 | -1.75053 | 32.38946 | 36086 ft | 470 kts | 265° |
| 2026-04-26 13:39 | -1.75701 | 32.32503 | 36086 ft | 469 kts | 265° |
| 2026-04-26 13:40 | -1.76347 | 32.26056 | 36084 ft | 470 kts | 265° |
| 2026-04-26 13:40 | -1.76993 | 32.19601 | 36083 ft | 470 kts | 265° |
| 2026-04-26 13:41 | -1.77642 | 32.13114 | 36082 ft | 468 kts | 265° |
| 2026-04-26 13:41 | -1.78295 | 32.06607 | 36081 ft | 469 kts | 265° |
| 2026-04-26 13:42 | -1.78943 | 32.00124 | 36080 ft | 469 kts | 265° |
| 2026-04-26 13:42 | -1.79591 | 31.93640 | 36082 ft | 469 kts | 265° |
| 2026-04-26 13:43 | -1.80237 | 31.87191 | 36084 ft | 468 kts | 265° |
| 2026-04-26 13:43 | -1.80887 | 31.80697 | 36085 ft | 470 kts | 265° |
| 2026-04-26 13:44 | -1.81538 | 31.74188 | 35996 ft | 469 kts | 265° |
| 2026-04-26 13:44 | -1.81857 | 31.71000 | 35562 ft | 465 kts | 265° |
| 2026-04-26 13:44 | -1.82178 | 31.67786 | 34937 ft | 462 kts | 265° |
| 2026-04-26 13:44 | -1.82497 | 31.64595 | 34221 ft | 461 kts | 265° |
| 2026-04-26 13:45 | -1.82814 | 31.61423 | 33474 ft | 461 kts | 265° |
| 2026-04-26 13:45 | -1.83133 | 31.58229 | 32692 ft | 461 kts | 265° |
| 2026-04-26 13:45 | -1.83444 | 31.55088 | 31962 ft | 462 kts | 265° |
| 2026-04-26 13:45 | -1.83765 | 31.51858 | 31159 ft | 465 kts | 265° |
| 2026-04-26 13:46 | -1.84084 | 31.48644 | 30319 ft | 468 kts | 265° |
| 2026-04-26 13:46 | -1.84404 | 31.45430 | 29504 ft | 469 kts | 265° |
| 2026-04-26 13:46 | -1.84725 | 31.42209 | 28892 ft | 466 kts | 265° |
| 2026-04-26 13:46 | -1.85048 | 31.38968 | 28247 ft | 464 kts | 265° |
| 2026-04-26 13:47 | -1.85366 | 31.35784 | 27596 ft | 463 kts | 265° |
| 2026-04-26 13:47 | -1.85686 | 31.32601 | 26933 ft | 462 kts | 265° |
| 2026-04-26 13:47 | -1.86007 | 31.29415 | 26266 ft | 460 kts | 265° |
| 2026-04-26 13:47 | -1.86327 | 31.26238 | 25582 ft | 459 kts | 265° |
| 2026-04-26 13:48 | -1.86644 | 31.23082 | 24906 ft | 458 kts | 265° |
| 2026-04-26 13:48 | -1.86961 | 31.19925 | 24230 ft | 456 kts | 265° |
| 2026-04-26 13:48 | -1.87276 | 31.16779 | 23554 ft | 454 kts | 265° |
| 2026-04-26 13:48 | -1.87590 | 31.13645 | 22879 ft | 452 kts | 265° |
| 2026-04-26 13:49 | -1.87902 | 31.10519 | 22204 ft | 450 kts | 265° |
| 2026-04-26 13:49 | -1.88209 | 31.07442 | 21547 ft | 448 kts | 265° |
| 2026-04-26 13:49 | -1.88515 | 31.04369 | 20876 ft | 447 kts | 265° |
| 2026-04-26 13:49 | -1.88823 | 31.01277 | 20193 ft | 445 kts | 265° |
| 2026-04-26 13:50 | -1.89129 | 30.98200 | 19503 ft | 444 kts | 265° |
| 2026-04-26 13:50 | -1.89433 | 30.95136 | 18815 ft | 442 kts | 265° |
| 2026-04-26 13:50 | -1.89736 | 30.92090 | 18124 ft | 440 kts | 265° |
| 2026-04-26 13:50 | -1.90036 | 30.89066 | 17432 ft | 438 kts | 265° |
| 2026-04-26 13:51 | -1.90336 | 30.86039 | 16745 ft | 436 kts | 265° |
| 2026-04-26 13:51 | -1.90687 | 30.83064 | 16056 ft | 434 kts | 262° |
| 2026-04-26 13:51 | -1.91247 | 30.80096 | 15366 ft | 431 kts | 257° |
| 2026-04-26 13:51 | -1.91958 | 30.77275 | 14667 ft | 416 kts | 255° |
| 2026-04-26 13:52 | -1.92753 | 30.74527 | 14024 ft | 399 kts | 253° |
| 2026-04-26 13:52 | -1.93547 | 30.71924 | 13408 ft | 384 kts | 252° |
| 2026-04-26 13:52 | -1.94315 | 30.69422 | 12801 ft | 371 kts | 252° |
| 2026-04-26 13:52 | -1.95049 | 30.67012 | 12215 ft | 359 kts | 253° |
| 2026-04-26 13:53 | -1.95745 | 30.64683 | 11645 ft | 348 kts | 253° |
| 2026-04-26 13:53 | -1.96421 | 30.62384 | 11094 ft | 347 kts | 253° |
| 2026-04-26 13:53 | -1.97100 | 30.60052 | 10665 ft | 345 kts | 253° |
| 2026-04-26 13:53 | -1.97745 | 30.57822 | 10486 ft | 323 kts | 253° |
| 2026-04-26 13:54 | -1.98349 | 30.55728 | 10353 ft | 302 kts | 253° |
| 2026-04-26 13:54 | -1.98913 | 30.53770 | 10227 ft | 283 kts | 252° |
| 2026-04-26 13:54 | -1.99461 | 30.51872 | 10013 ft | 292 kts | 252° |
| 2026-04-26 13:55 | -2.00580 | 30.48012 | 9253 ft | 282 kts | 252° |
| 2026-04-26 13:55 | -2.00940 | 30.46763 | 9021 ft | 276 kts | 252° |
| 2026-04-26 13:55 | -2.01891 | 30.42472 | 8465 ft | 274 kts | 271° |
| 2026-04-26 13:56 | -2.01669 | 30.40607 | 8284 ft | 267 kts | 281° |
| 2026-04-26 13:56 | -2.01261 | 30.38846 | 8199 ft | 250 kts | 283° |
| 2026-04-26 13:56 | -2.00924 | 30.37192 | 8113 ft | 234 kts | 279° |
| 2026-04-26 13:56 | -2.00677 | 30.35666 | 8061 ft | 227 kts | 277° |
| 2026-04-26 13:57 | -2.00425 | 30.34147 | 7986 ft | 213 kts | 278° |
| 2026-04-26 13:57 | -2.00175 | 30.32782 | 7901 ft | 204 kts | 280° |
| 2026-04-26 13:57 | -1.99925 | 30.31365 | 7840 ft | 207 kts | 277° |
| 2026-04-26 13:57 | -1.99680 | 30.29941 | 7695 ft | 210 kts | 279° |
| 2026-04-26 13:58 | -1.99428 | 30.28524 | 7360 ft | 204 kts | 280° |
| 2026-04-26 13:58 | -1.99183 | 30.27130 | 7115 ft | 203 kts | 279° |
| 2026-04-26 13:58 | -1.98944 | 30.25753 | 6853 ft | 202 kts | 279° |
| 2026-04-26 13:58 | -1.98716 | 30.24431 | 6658 ft | 186 kts | 279° |
| 2026-04-26 13:59 | -1.98489 | 30.23170 | 6335 ft | 181 kts | 278° |
| 2026-04-26 13:59 | -1.98273 | 30.21963 | 6139 ft | 178 kts | 279° |
| 2026-04-26 13:59 | -1.98064 | 30.20751 | 5908 ft | 173 kts | 277° |
| 2026-04-26 14:00 | -1.97481 | 30.17374 | 5270 ft | 172 kts | 277° |
| 2026-04-26 14:00 | -1.97258 | 30.16212 | 5067 ft | 168 kts | 278° |
| 2026-04-26 14:00 | -1.97125 | 30.15454 | 4922 ft | 166 kts | 279° |
| 2026-04-26 14:01 | -1.96882 | 30.14045 | 4881 ft | 129 kts | 279° |
| 2026-04-26 14:01 | -1.96772 | 30.13396 | 4888 ft | 65 kts | 280° |
| 2026-04-26 14:01 | -1.96714 | 30.13084 | 4885 ft | 29 kts | 279° |
| 2026-04-26 14:01 | -1.96667 | 30.12967 | 4882 ft | 16 kts | 340° |
| 2026-04-26 14:02 | -1.96563 | 30.13022 | 4882 ft | 17 kts | 47° |
| 2026-04-26 14:02 | -1.96550 | 30.13125 | 4886 ft | 13 kts | 103° |
| 2026-04-26 14:02 | -1.96567 | 30.13201 | 4890 ft | 9 kts | 101° |
| 2026-04-26 14:02 | -1.96582 | 30.13271 | 4892 ft | 16 kts | 101° |
| 2026-04-26 14:03 | -1.96599 | 30.13388 | 4893 ft | 16 kts | 98° |
| 2026-04-26 14:03 | -1.96582 | 30.13493 | 4894 ft | 15 kts | 25° |
| 2026-04-26 14:03 | -1.96484 | 30.13534 | 4892 ft | 15 kts | 17° |
| 2026-04-26 14:03 | -1.96440 | 30.13544 | 4891 ft | 2 kts | 11° |
| 2026-04-26 14:04 | -1.96438 | 30.13544 | 4891 ft | 0 kts | 11° |